Time;durP1;ratioP1;P1;durP2;ratioP2;P2;SDS_P1;SDS_P2;PMS_P1;PMS_P2;Temp;Humidity;BMP_temperature;BMP_pressure;BME280_temperature;BME280_humidity;BME280_pressure;Samples;Min_cycle;Max_cycle;Signal;HPM_P1;HPM_P2
2022/04/03 00:01:33;;;;;;;0.40;0.30;;;;;;;-0.31;67.93;101323.06;5054312;28;20461;-69
2022/04/03 00:04:01;;;;;;;0.40;0.30;;;;;;;-0.29;67.60;101323.69;5054023;28;20692;-70
2022/04/03 00:06:28;;;;;;;0.40;0.30;;;;;;;-0.30;67.81;101328.19;5054151;28;20438;-70
2022/04/03 00:08:56;;;;;;;0.40;0.30;;;;;;;-0.31;67.79;101326.56;5053751;28;20462;-70
2022/04/03 00:11:23;;;;;;;0.40;0.30;;;;;;;-0.41;68.26;101317.38;5053452;28;20878;-69
2022/04/03 00:13:49;;;;;;;0.40;0.30;;;;;;;-0.41;67.70;101312.88;5053958;28;20438;-69
2022/04/03 00:16:16;;;;;;;0.40;0.30;;;;;;;-0.51;68.66;101313.31;5054001;28;20532;-69
2022/04/03 00:18:43;;;;;;;0.40;0.30;;;;;;;-0.50;70.04;101316.78;5053818;28;20553;-69
2022/04/03 00:21:13;;;;;;;0.40;0.30;;;;;;;-0.59;70.89;101315.38;5053256;28;20454;-69
2022/04/03 00:23:39;;;;;;;0.40;0.30;;;;;;;-0.65;71.84;101316.22;5033738;28;20573;-69
2022/04/03 00:26:05;;;;;;;0.40;0.30;;;;;;;-0.54;71.52;101319.03;5033735;28;20443;-69
2022/04/03 00:28:32;;;;;;;0.40;0.30;;;;;;;-0.50;70.67;101303.47;5050594;28;20821;-68
2022/04/03 00:30:59;;;;;;;0.40;0.30;;;;;;;-0.58;71.10;101311.69;5053545;28;20446;-69
2022/04/03 00:33:25;;;;;;;0.40;0.30;;;;;;;-0.53;71.05;101304.75;5053573;28;20438;-69
2022/04/03 00:35:51;;;;;;;0.40;0.30;;;;;;;-0.40;70.43;101313.69;5052834;28;20802;-69
2022/04/03 00:38:19;;;;;;;0.40;0.30;;;;;;;-0.46;69.82;101312.69;5053368;28;20454;-69
2022/04/03 00:40:46;;;;;;;0.40;0.30;;;;;;;-0.67;70.24;101308.44;5053396;28;20442;-68
2022/04/03 00:43:14;;;;;;;0.40;0.30;;;;;;;-0.60;70.04;101324.41;5052722;28;21117;-69
2022/04/03 00:45:45;;;;;;;0.40;0.30;;;;;;;-0.60;69.90;101319.88;5053249;28;20438;-69
2022/04/03 00:48:12;;;;;;;0.40;0.30;;;;;;;-0.67;70.74;101323.59;5053019;28;20423;-69
2022/04/03 00:50:38;;;;;;;0.40;0.30;;;;;;;-0.56;69.86;101317.63;5052557;28;20462;-69
2022/04/03 00:53:05;;;;;;;0.40;0.30;;;;;;;-0.61;69.68;101317.44;5053066;28;20439;-68
2022/04/03 00:55:33;;;;;;;0.40;0.30;;;;;;;-0.66;68.96;101317.25;5052753;28;20512;-69
2022/04/03 00:58:00;;;;;;;0.40;0.30;;;;;;;-0.74;70.14;101312.97;5052709;28;20987;-69
2022/04/03 01:00:26;;;;;;;0.40;0.30;;;;;;;-0.69;70.36;101305.19;5052650;28;20477;-69
2022/04/03 01:02:53;;;;;;;0.40;0.30;;;;;;;-0.78;70.82;101315.22;5052779;28;20485;-69
2022/04/03 01:05:19;;;;;;;0.40;0.30;;;;;;;-0.77;71.04;101311.53;5052820;28;20515;-68
2022/04/03 01:07:46;;;;;;;0.40;0.30;;;;;;;-0.81;70.77;101305.00;5052709;28;20453;-69
2022/04/03 01:10:12;;;;;;;0.40;0.30;;;;;;;-0.93;71.26;101303.19;5052353;28;20466;-69
2022/04/03 01:12:41;;;;;;;0.40;0.30;;;;;;;-0.89;71.40;101297.22;5052726;28;20442;-69
2022/04/03 01:15:09;;;;;;;0.40;0.30;;;;;;;-0.85;72.84;101301.13;5052655;28;20446;-69
2022/04/03 01:17:35;;;;;;;0.40;0.30;;;;;;;-0.79;71.88;101294.16;5051596;28;20927;-69
2022/04/03 01:20:02;;;;;;;0.40;0.30;;;;;;;-0.86;71.61;101310.13;5052049;28;21029;-69
2022/04/03 01:22:28;;;;;;;0.40;0.30;;;;;;;-0.79;70.71;101312.78;5091728;22;20895;-64
2022/04/03 01:24:57;;;;;;;0.40;0.30;;;;;;;-0.81;70.78;101317.47;5072988;28;20945;-64
2022/04/03 01:27:24;;;;;;;0.40;0.30;;;;;;;-0.87;71.06;101315.66;5073210;28;20444;-64
2022/04/03 01:29:52;;;;;;;0.40;0.30;;;;;;;-1.03;73.40;101311.56;5073334;28;20491;-65
2022/04/03 01:32:18;;;;;;;0.40;0.30;;;;;;;-1.10;73.26;101316.91;5073441;28;20469;-65
2022/04/03 01:34:44;;;;;;;0.40;0.30;;;;;;;-1.11;73.36;101314.44;5073240;28;20503;-64
2022/04/03 01:37:11;;;;;;;0.40;0.30;;;;;;;-1.14;72.70;101313.03;5073512;28;20441;-63
2022/04/03 01:39:37;;;;;;;0.40;0.30;;;;;;;-1.24;72.93;101317.09;5073286;28;20445;-64
2022/04/03 01:42:05;;;;;;;0.40;0.30;;;;;;;-1.29;72.15;101318.53;5073138;28;20468;-64
2022/04/03 01:44:32;;;;;;;0.40;0.40;;;;;;;-1.24;71.81;101315.25;5072841;28;21025;-63
2022/04/03 01:46:58;;;;;;;0.40;0.30;;;;;;;-1.07;71.73;101313.81;5072732;28;20448;-63
2022/04/03 01:49:25;;;;;;;0.40;0.30;;;;;;;-1.00;72.08;101311.19;5073148;28;20441;-63
2022/04/03 01:51:51;;;;;;;2.73;2.57;;;;;;;-1.12;72.50;101302.19;5073027;28;20472;-63
2022/04/03 01:54:18;;;;;;;0.50;0.50;;;;;;;-1.21;74.14;101314.06;5072986;28;20441;-63
2022/04/03 01:56:45;;;;;;;0.40;0.30;;;;;;;-1.04;72.98;101301.97;5072978;28;20458;-64
2022/04/03 01:59:12;;;;;;;0.40;0.30;;;;;;;-0.97;72.92;101310.78;5072958;28;20443;-63
2022/04/03 02:01:39;;;;;;;0.40;0.30;;;;;;;-0.99;71.69;101310.16;5072594;28;20464;-63
2022/04/03 02:04:06;;;;;;;0.40;0.30;;;;;;;-0.97;71.90;101309.94;5072806;28;20481;-61
2022/04/03 02:06:32;;;;;;;0.40;0.30;;;;;;;-0.90;71.90;101308.91;5072900;28;20441;-63
2022/04/03 02:09:01;;;;;;;0.40;0.30;;;;;;;-0.93;72.37;101301.38;5072814;28;20441;-63
2022/04/03 02:11:27;;;;;;;0.40;0.30;;;;;;;-0.79;72.10;101300.31;5072877;28;20465;-63
2022/04/03 02:13:54;;;;;;;0.47;0.40;;;;;;;-0.77;71.97;101308.88;5072420;28;20935;-63
2022/04/03 02:16:22;;;;;;;0.40;0.30;;;;;;;-0.74;71.68;101305.00;5072796;28;20437;-63
2022/04/03 02:18:49;;;;;;;0.40;0.30;;;;;;;-0.71;71.54;101301.91;5072735;28;20445;-64
2022/04/03 02:21:17;;;;;;;0.40;0.30;;;;;;;-0.77;71.99;101313.38;5072432;28;20542;-63
2022/04/03 02:23:44;;;;;;;0.40;0.30;;;;;;;-0.70;72.01;101305.41;5072349;28;21012;-64
2022/04/03 02:26:10;;;;;;;0.40;0.30;;;;;;;-0.60;71.90;101308.44;5072789;28;20445;-63
2022/04/03 02:28:39;;;;;;;0.40;0.30;;;;;;;-0.62;71.51;101305.16;5072315;28;20984;-63
2022/04/03 02:31:05;;;;;;;0.40;0.30;;;;;;;-0.56;71.71;101307.00;5074740;28;20445;-64
2022/04/03 02:33:33;;;;;;;2.60;2.50;;;;;;;-0.54;72.98;101307.59;5076436;28;20437;-63
2022/04/03 02:35:59;;;;;;;0.40;0.40;;;;;;;-0.40;72.38;101308.34;5076274;28;20449;-63
2022/04/03 02:38:26;;;;;;;0.40;0.30;;;;;;;-0.48;72.59;101306.78;5076208;28;20449;-63
2022/04/03 02:40:52;;;;;;;0.40;0.30;;;;;;;-0.51;73.38;101302.66;5076111;28;20437;-64
2022/04/03 02:43:19;;;;;;;0.40;0.30;;;;;;;-0.31;72.78;101305.28;5076016;28;20483;-64
2022/04/03 02:45:46;;;;;;;0.40;0.30;;;;;;;-0.20;72.45;101298.47;5076096;28;20457;-64
2022/04/03 02:48:12;;;;;;;0.40;0.30;;;;;;;-0.24;72.76;101301.75;5076107;28;20444;-63
2022/04/03 02:50:40;;;;;;;0.40;0.30;;;;;;;-0.15;72.06;101301.28;5075990;28;20796;-63
2022/04/03 02:53:06;;;;;;;0.40;0.30;;;;;;;-0.13;72.15;101299.25;5075560;28;20859;-66
2022/04/03 02:55:33;;;;;;;0.40;0.30;;;;;;;-0.10;72.03;101300.66;5075595;28;20935;-64
2022/04/03 02:57:59;;;;;;;0.40;0.30;;;;;;;-0.13;72.08;101301.91;5075848;28;20437;-66
2022/04/03 03:00:26;;;;;;;0.40;0.30;;;;;;;-0.13;72.02;101301.09;5075901;28;20499;-64
2022/04/03 03:02:52;;;;;;;0.40;0.30;;;;;;;-0.07;71.78;101293.06;5075742;28;20538;-67
2022/04/03 03:05:19;;;;;;;0.40;0.30;;;;;;;0.00;71.92;101290.38;5075751;28;20534;-66
2022/04/03 03:07:48;;;;;;;0.40;0.30;;;;;;;0.10;70.57;101287.25;5075652;28;20445;-66
2022/04/03 03:10:17;;;;;;;0.40;0.30;;;;;;;0.03;68.79;101281.94;5075372;28;20544;-66
2022/04/03 03:12:44;;;;;;;0.40;0.30;;;;;;;-0.16;70.28;101288.22;5075619;28;20458;-66
2022/04/03 03:15:11;;;;;;;0.40;0.30;;;;;;;-0.02;70.27;101281.78;5075566;28;20441;-66
2022/04/03 03:17:38;;;;;;;0.40;0.30;;;;;;;0.00;70.97;101285.06;5075554;28;20469;-66
2022/04/03 03:20:06;;;;;;;0.40;0.30;;;;;;;-0.02;70.75;101287.09;5075479;28;20446;-66
2022/04/03 03:22:33;;;;;;;0.40;0.30;;;;;;;0.08;70.87;101287.44;5075094;28;20515;-66
2022/04/03 03:25:01;;;;;;;0.40;0.30;;;;;;;0.15;69.48;101287.41;5075472;28;20568;-66
2022/04/03 03:27:28;;;;;;;0.40;0.30;;;;;;;0.19;69.17;101284.09;5075098;28;20437;-65
2022/04/03 03:29:54;;;;;;;0.40;0.30;;;;;;;0.17;68.88;101282.69;5075330;28;20463;-66
2022/04/03 03:32:21;;;;;;;0.40;0.30;;;;;;;0.24;68.67;101278.13;5075216;28;20873;-64
2022/04/03 03:34:47;;;;;;;0.40;0.30;;;;;;;0.29;67.66;101280.16;5074877;28;20946;-66
2022/04/03 03:37:14;;;;;;;0.40;0.30;;;;;;;0.28;67.30;101286.53;5075170;28;20950;-66
2022/04/03 03:39:40;;;;;;;0.40;0.30;;;;;;;0.23;67.54;101282.66;5075155;28;20460;-66
2022/04/03 03:42:08;;;;;;;0.40;0.30;;;;;;;0.19;67.93;101286.78;5074588;28;20465;-65
2022/04/03 03:44:35;;;;;;;0.40;0.30;;;;;;;0.26;67.93;101281.38;5074964;28;20484;-66
2022/04/03 03:47:01;;;;;;;0.40;0.30;;;;;;;0.17;68.36;101286.16;5074915;28;20468;-65
2022/04/03 03:49:28;;;;;;;0.40;0.30;;;;;;;0.21;68.61;101289.22;5074953;28;20448;-66
2022/04/03 03:51:54;;;;;;;0.40;0.30;;;;;;;0.25;68.45;101285.91;5074791;28;20469;-66
2022/04/03 03:54:21;;;;;;;1.90;1.80;;;;;;;0.35;68.22;101289.94;5074513;28;20801;-66
2022/04/03 03:56:47;;;;;;;0.40;0.30;;;;;;;0.39;66.41;101291.13;5074817;28;20441;-66
2022/04/03 03:59:15;;;;;;;0.40;0.30;;;;;;;0.34;66.15;101290.97;5074789;28;20445;-65
2022/04/03 04:01:42;;;;;;;0.40;0.30;;;;;;;0.37;66.43;101293.22;5074638;28;20489;-66
2022/04/03 04:04:08;;;;;;;0.40;0.30;;;;;;;0.40;67.37;101292.75;5074325;28;21051;-66
2022/04/03 04:06:35;;;;;;;0.40;0.30;;;;;;;0.34;67.56;101296.31;5074542;28;20440;-66
2022/04/03 04:09:01;;;;;;;0.40;0.30;;;;;;;0.35;66.71;101300.59;5074469;28;20442;-66
2022/04/03 04:11:28;;;;;;;0.40;0.30;;;;;;;0.35;65.93;101303.25;5074050;28;20453;-66
2022/04/03 04:13:54;;;;;;;0.40;0.30;;;;;;;0.35;66.26;101289.94;5074360;28;20433;-66
2022/04/03 04:16:22;;;;;;;0.40;0.30;;;;;;;0.44;65.99;101296.63;5074159;28;20938;-66
2022/04/03 04:18:49;;;;;;;0.40;0.30;;;;;;;0.44;65.43;101299.28;5074372;28;20523;-67
2022/04/03 04:21:16;;;;;;;12.27;11.43;;;;;;;0.40;65.53;101295.44;5073692;28;20485;-65
2022/04/03 04:23:43;;;;;;;0.40;0.30;;;;;;;0.36;65.13;101302.25;5074124;28;20437;-65
2022/04/03 04:26:10;;;;;;;0.40;0.40;;;;;;;0.41;65.73;101294.41;5074146;28;20449;-65
2022/04/03 04:28:36;;;;;;;0.40;0.30;;;;;;;0.34;65.35;101296.31;5074116;28;20454;-65
2022/04/03 04:31:03;;;;;;;0.40;0.30;;;;;;;0.36;65.10;101302.25;5073940;28;20449;-65
2022/04/03 04:33:31;;;;;;;0.40;0.30;;;;;;;0.43;64.80;101305.66;5073696;28;20935;-65
2022/04/03 04:35:57;;;;;;;0.40;0.30;;;;;;;0.39;64.58;101307.13;5073897;28;20442;-66
2022/04/03 04:38:24;;;;;;;0.40;0.30;;;;;;;0.41;64.53;101310.41;5073985;28;20813;-65
2022/04/03 04:40:51;;;;;;;0.40;0.30;;;;;;;0.37;64.28;101309.19;5073780;28;20475;-65
2022/04/03 04:43:17;;;;;;;0.40;0.30;;;;;;;0.34;64.02;101305.09;5073858;28;20445;-65
2022/04/03 04:45:44;;;;;;;0.40;0.30;;;;;;;0.23;65.15;101306.63;5073700;28;20627;-66
2022/04/03 04:48:10;;;;;;;0.40;0.30;;;;;;;0.25;65.49;101314.38;5073472;28;20441;-66
2022/04/03 04:50:38;;;;;;;0.40;0.30;;;;;;;0.22;65.49;101307.66;5073621;28;20434;-65
2022/04/03 04:53:05;;;;;;;0.40;0.30;;;;;;;0.23;64.94;101303.97;5072859;28;20468;-63
2022/04/03 04:55:31;;;;;;;0.40;0.30;;;;;;;0.20;64.89;101303.56;5073601;28;20480;-63
2022/04/03 04:57:58;;;;;;;0.40;0.30;;;;;;;0.18;65.00;101305.66;5073567;28;20490;-63
2022/04/03 05:00:26;;;;;;;0.40;0.30;;;;;;;0.11;64.84;101313.66;5073237;28;20848;-62
2022/04/03 05:02:53;;;;;;;0.40;0.30;;;;;;;0.02;65.56;101314.13;5073421;28;20464;-63
2022/04/03 05:05:21;;;;;;;0.40;0.30;;;;;;;0.09;65.20;101317.56;5073414;28;20484;-63
2022/04/03 05:07:52;;;;;;;2.40;2.30;;;;;;;0.08;65.20;101319.41;5073417;28;20472;-68
2022/04/03 05:10:19;;;;;;;0.40;0.30;;;;;;;0.17;65.09;101319.97;5073427;28;20532;-63
2022/04/03 05:12:45;;;;;;;0.40;0.30;;;;;;;0.23;64.35;101324.47;5073319;28;20461;-64
2022/04/03 05:15:13;;;;;;;0.40;0.30;;;;;;;0.25;64.74;101331.19;5073383;28;20809;-63
2022/04/03 05:17:40;;;;;;;0.40;0.30;;;;;;;0.27;64.24;101331.00;5073452;28;20437;-63
2022/04/03 05:20:08;;;;;;;0.40;0.30;;;;;;;0.35;64.21;101324.56;5073423;28;20467;-64
2022/04/03 05:22:34;;;;;;;0.40;0.30;;;;;;;0.41;62.88;101335.19;5072947;28;20476;-64
2022/04/03 05:25:03;;;;;;;0.40;0.30;;;;;;;0.36;63.24;101323.56;5073169;28;20504;-64
2022/04/03 05:27:30;;;;;;;0.40;0.30;;;;;;;0.41;62.77;101329.06;5072964;28;20854;-63
2022/04/03 05:29:56;;;;;;;0.40;0.30;;;;;;;0.42;62.42;101326.16;5073212;28;20441;-63
2022/04/03 05:32:27;;;;;;;0.40;0.30;;;;;;;0.44;63.07;101334.78;5073171;28;20485;-63
2022/04/03 05:34:54;;;;;;;0.40;0.30;;;;;;;0.52;63.21;101328.34;5073179;28;20512;-64
2022/04/03 05:37:20;;;;;;;0.40;0.30;;;;;;;0.63;62.65;101341.00;5072806;28;20540;-63
2022/04/03 05:39:47;;;;;;;0.40;0.30;;;;;;;0.66;62.21;101337.06;5073090;28;20444;-63
2022/04/03 05:42:15;;;;;;;0.40;0.30;;;;;;;0.69;61.72;101333.97;5073073;28;20483;-64
2022/04/03 05:44:41;;;;;;;0.40;0.30;;;;;;;0.69;62.26;101329.47;5072970;28;20484;-64
2022/04/03 05:47:08;;;;;;;0.40;0.30;;;;;;;0.69;61.78;101334.78;5073007;28;20437;-64
2022/04/03 05:49:34;;;;;;;0.40;0.30;;;;;;;0.71;61.94;101332.75;5073055;28;20437;-63
2022/04/03 05:52:01;;;;;;;0.40;0.30;;;;;;;0.79;61.71;101336.97;5072919;28;20508;-63
2022/04/03 05:54:27;;;;;;;0.40;0.30;;;;;;;0.88;61.19;101342.84;5072656;28;20930;-63
2022/04/03 05:56:55;;;;;;;0.40;0.30;;;;;;;0.87;61.68;101341.22;5072906;28;20446;-63
2022/04/03 05:59:23;;;;;;;0.50;0.47;;;;;;;0.90;60.95;101338.94;5072981;28;20448;-63
2022/04/03 06:01:49;;;;;;;0.40;0.30;;;;;;;0.84;61.58;101330.97;5072474;28;20979;-63
2022/04/03 06:04:16;;;;;;;0.40;0.30;;;;;;;0.80;62.19;101333.28;5073770;28;20485;-63
2022/04/03 06:06:43;;;;;;;0.40;0.30;;;;;;;0.82;61.44;101349.06;5076472;28;20445;-65
2022/04/03 06:09:09;;;;;;;0.40;0.30;;;;;;;0.79;61.93;101341.47;5076794;28;20437;-64
2022/04/03 06:11:36;;;;;;;0.40;0.30;;;;;;;0.77;62.22;101341.72;5076719;28;20464;-64
2022/04/03 06:14:03;;;;;;;0.40;0.30;;;;;;;0.74;61.44;101337.63;5076574;28;20456;-63
2022/04/03 06:16:30;;;;;;;0.40;0.30;;;;;;;0.75;61.61;101343.75;5076691;28;20491;-64
2022/04/03 06:18:57;;;;;;;0.40;0.30;;;;;;;0.78;62.23;101345.19;5076567;28;20441;-64
2022/04/03 06:21:23;;;;;;;0.40;0.30;;;;;;;0.82;62.08;101346.41;5076001;28;20476;-64
2022/04/03 06:23:50;;;;;;;0.40;0.30;;;;;;;0.92;61.42;101354.72;5076671;28;20422;-64
2022/04/03 06:26:16;;;;;;;0.40;0.30;;;;;;;0.86;61.82;101350.25;5076014;28;20867;-65
2022/04/03 06:28:44;;;;;;;0.40;0.30;;;;;;;0.95;61.69;101343.63;5076266;28;20441;-66
2022/04/03 06:31:11;;;;;;;0.40;0.30;;;;;;;0.99;62.10;101342.16;5076192;28;20555;-64
2022/04/03 06:33:39;;;;;;;0.40;0.30;;;;;;;1.15;62.33;101341.59;5075865;28;20817;-65
2022/04/03 06:36:06;;;;;;;0.40;0.30;;;;;;;1.23;61.76;101341.28;5076036;28;20437;-66
2022/04/03 06:38:33;;;;;;;0.40;0.30;;;;;;;1.40;61.29;101344.19;5076154;28;20963;-65
2022/04/03 06:41:00;;;;;;;0.40;0.30;;;;;;;1.62;60.46;101338.44;5075736;28;20445;-65
2022/04/03 06:43:29;;;;;;;0.40;0.30;;;;;;;1.75;59.80;101347.09;5075781;28;20996;-65
2022/04/03 06:45:57;;;;;;;0.40;0.30;;;;;;;1.73;59.29;101348.38;5075942;28;20484;-63
2022/04/03 06:48:24;;;;;;;0.40;0.30;;;;;;;1.84;59.19;101338.78;5076037;28;20495;-65
2022/04/03 06:50:52;;;;;;;0.40;0.30;;;;;;;1.88;59.14;101342.66;5075581;28;20935;-65
2022/04/03 06:53:18;;;;;;;0.40;0.30;;;;;;;1.96;59.05;101347.69;5075540;28;20994;-64
2022/04/03 06:55:45;;;;;;;0.40;0.30;;;;;;;2.00;59.21;101354.22;5075926;28;20433;-65
2022/04/03 06:58:11;;;;;;;0.40;0.30;;;;;;;2.07;58.91;101343.44;5075550;28;20474;-65
2022/04/03 07:00:38;;;;;;;0.40;0.30;;;;;;;2.20;59.02;101345.94;5075822;28;20444;-64
2022/04/03 07:03:05;;;;;;;0.40;0.30;;;;;;;2.33;58.86;101351.09;5075651;28;20469;-64
2022/04/03 07:05:31;;;;;;;0.40;0.30;;;;;;;2.46;58.46;101350.91;5075700;28;20485;-64
2022/04/03 07:07:59;;;;;;;0.40;0.30;;;;;;;2.54;58.28;101363.13;5075397;28;20795;-64
2022/04/03 07:10:26;;;;;;;0.40;0.30;;;;;;;2.62;58.45;101360.13;5076735;28;20441;-67
2022/04/03 07:12:54;;;;;;;0.40;0.30;;;;;;;2.82;57.22;101362.50;5075636;28;20522;-65
2022/04/03 07:15:21;;;;;;;0.40;0.30;;;;;;;2.90;56.95;101356.00;5075282;28;20442;-65
2022/04/03 07:17:48;;;;;;;0.40;0.30;;;;;;;3.11;56.57;101366.16;5075106;28;20453;-66
2022/04/03 07:20:14;;;;;;;0.50;0.30;;;;;;;3.24;55.96;101360.56;5075546;28;20433;-68
2022/04/03 07:22:42;;;;;;;0.40;0.30;;;;;;;3.40;55.28;101360.91;5083394;22;20512;-74
2022/04/03 07:25:10;;;;;;;0.40;0.30;;;;;;;3.34;54.84;101372.56;5075265;28;20887;-74
2022/04/03 07:27:37;;;;;;;0.40;0.30;;;;;;;3.39;54.67;101369.97;5075261;28;20445;-74
2022/04/03 07:30:05;;;;;;;0.40;0.30;;;;;;;3.36;54.15;101373.13;5075672;28;20460;-74
2022/04/03 07:32:32;;;;;;;0.40;0.30;;;;;;;3.48;54.25;101379.28;5076196;28;20499;-74
2022/04/03 07:34:58;;;;;;;0.40;0.30;;;;;;;3.48;54.50;101387.31;5075548;28;20441;-74
2022/04/03 07:37:25;;;;;;;0.40;0.30;;;;;;;3.17;54.74;101381.25;5075498;28;20442;-74
2022/04/03 07:39:52;;;;;;;0.40;0.30;;;;;;;3.28;54.61;101383.16;5075050;28;20520;-75
2022/04/03 07:42:20;;;;;;;0.40;0.30;;;;;;;3.23;54.48;101376.84;5075395;28;20465;-74
2022/04/03 07:44:46;;;;;;;0.40;0.30;;;;;;;3.34;54.30;101375.22;5075146;28;20481;-74
2022/04/03 07:47:14;;;;;;;0.40;0.40;;;;;;;3.36;54.60;101381.16;5075211;28;20445;-73
2022/04/03 07:49:41;;;;;;;0.40;0.30;;;;;;;3.43;54.45;101371.97;5074994;28;20568;-74
2022/04/03 07:52:08;;;;;;;0.40;0.30;;;;;;;3.57;54.41;101367.16;5075109;28;20456;-74
2022/04/03 07:54:35;;;;;;;0.40;0.30;;;;;;;3.68;54.28;101366.34;5075182;28;20438;-73
2022/04/03 07:57:01;;;;;;;0.83;0.80;;;;;;;3.81;53.45;101367.97;5074964;28;20452;-73
2022/04/03 07:59:29;;;;;;;0.40;0.30;;;;;;;3.92;53.27;101355.56;5074944;28;20465;-73
2022/04/03 08:01:56;;;;;;;0.40;0.30;;;;;;;3.92;53.14;101363.59;5074653;28;20950;-74
2022/04/03 08:04:22;;;;;;;0.40;0.30;;;;;;;4.00;53.38;101365.91;5074835;28;20801;-74
2022/04/03 08:06:49;;;;;;;0.40;0.30;;;;;;;4.11;53.58;101357.00;5074606;28;20481;-74
2022/04/03 08:09:16;;;;;;;0.40;0.30;;;;;;;4.25;53.59;101355.69;5074489;28;20969;-74
2022/04/03 08:11:42;;;;;;;0.40;0.30;;;;;;;4.42;52.76;101354.91;5074718;28;20519;-74
2022/04/03 08:14:09;;;;;;;0.40;0.30;;;;;;;4.18;52.91;101360.38;5074332;28;20860;-74
2022/04/03 08:16:37;;;;;;;0.40;0.30;;;;;;;4.16;52.89;101369.69;5074311;28;20433;-74
2022/04/03 08:19:03;;;;;;;0.40;0.30;;;;;;;4.15;53.21;101363.53;5074469;28;20472;-74
2022/04/03 08:21:30;;;;;;;0.40;0.30;;;;;;;4.12;52.85;101384.63;5074549;28;20818;-74
2022/04/03 08:23:57;;;;;;;7.20;4.73;;;;;;;4.01;53.49;101375.59;5074142;28;20457;-74
2022/04/03 08:26:25;;;;;;;0.40;0.30;;;;;;;3.94;53.68;101373.06;5074152;28;21001;-74
2022/04/03 08:28:53;;;;;;;0.40;0.30;;;;;;;3.99;53.64;101370.47;5073266;28;20515;-75
2022/04/03 08:31:20;;;;;;;0.40;0.30;;;;;;;4.07;53.79;101369.25;5074344;28;20448;-74
2022/04/03 08:33:48;;;;;;;0.40;0.30;;;;;;;4.04;53.45;101369.75;5074286;28;20452;-74
2022/04/03 08:36:15;;;;;;;0.40;0.30;;;;;;;4.27;53.93;101364.31;5074194;28;20434;-74
2022/04/03 08:38:41;;;;;;;0.40;0.30;;;;;;;4.61;53.37;101367.06;5074103;28;20476;-74
2022/04/03 08:41:08;;;;;;;0.40;0.30;;;;;;;4.84;51.42;101370.66;5074157;28;20441;-75
2022/04/03 08:43:34;;;;;;;0.40;0.30;;;;;;;4.98;50.98;101367.41;5074188;28;20448;-74
2022/04/03 08:46:01;;;;;;;0.40;0.30;;;;;;;5.12;50.15;101370.56;5073947;28;20492;-73
2022/04/03 08:48:32;;;;;;;0.40;0.30;;;;;;;5.15;49.38;101367.41;5073973;28;20465;-74
2022/04/03 08:51:02;;;;;;;0.40;0.30;;;;;;;5.15;48.56;101362.03;5073759;28;20918;-74
2022/04/03 08:53:31;;;;;;;0.40;0.30;;;;;;;5.12;47.84;101359.84;5073918;28;20491;-74
2022/04/03 08:55:59;;;;;;;0.40;0.30;;;;;;;4.87;48.16;101359.41;5073692;28;20462;-74
2022/04/03 08:58:25;;;;;;;0.40;0.30;;;;;;;4.93;48.19;101363.84;5073776;28;20518;-75
2022/04/03 09:00:52;;;;;;;0.40;0.30;;;;;;;5.04;47.62;101361.03;5073832;28;20449;-74
2022/04/03 09:03:18;;;;;;;0.40;0.30;;;;;;;5.15;47.14;101358.53;5073583;28;20437;-74
2022/04/03 09:05:45;;;;;;;0.40;0.30;;;;;;;5.22;46.96;101356.47;5073651;28;20481;-74
2022/04/03 09:08:13;;;;;;;0.40;0.30;;;;;;;5.26;45.90;101357.63;5073437;28;20449;-74
2022/04/03 09:10:41;;;;;;;0.40;0.30;;;;;;;5.29;44.62;101365.19;5073535;28;20539;-74
2022/04/03 09:13:09;;;;;;;0.40;0.30;;;;;;;5.35;45.12;101355.31;5073254;28;20994;-74
2022/04/03 09:15:35;;;;;;;0.40;0.30;;;;;;;5.46;45.08;101346.38;5073608;28;20445;-74
2022/04/03 09:18:04;;;;;;;0.40;0.30;;;;;;;5.54;44.70;101354.00;5073135;28;21000;-74
2022/04/03 09:20:32;;;;;;;0.40;0.30;;;;;;;5.66;44.82;101352.00;5073569;28;20429;-74
2022/04/03 09:23:00;;;;;;;0.40;0.30;;;;;;;5.79;44.11;101343.56;5073355;28;20457;-75
2022/04/03 09:25:30;;;;;;;0.40;0.30;;;;;;;5.87;43.90;101341.50;5073426;28;20489;-74
2022/04/03 09:27:58;;;;;;;0.40;0.30;;;;;;;5.92;43.59;101339.72;5073340;28;20461;-74
2022/04/03 09:30:30;;;;;;;0.40;0.30;;;;;;;5.91;41.48;101343.44;5073420;28;20445;-74
2022/04/03 09:32:58;;;;;;;0.40;0.30;;;;;;;5.92;41.92;101333.53;5073455;28;20465;-75
2022/04/03 09:35:27;;;;;;;0.40;0.30;;;;;;;6.14;41.58;101349.63;5073324;28;20457;-74
2022/04/03 09:38:10;;;;;;;0.40;0.30;;;;;;;6.22;41.19;101347.31;5073314;28;20469;-74
2022/04/03 09:40:41;;;;;;;0.40;0.30;;;;;;;6.40;40.22;101329.19;5072930;28;20430;-74
2022/04/03 09:43:29;;;;;;;0.40;0.30;;;;;;;6.58;41.13;101329.63;5074110;28;20477;-74
2022/04/03 09:45:57;;;;;;;0.40;0.30;;;;;;;6.73;40.60;101328.97;5068569;28;20492;-74
2022/04/03 09:48:26;;;;;;;0.40;0.30;;;;;;;6.59;40.64;101322.38;5072932;28;20985;-74
2022/04/03 09:51:03;;;;;;;0.40;0.30;;;;;;;6.44;40.54;101319.53;5073255;28;20445;-75
2022/04/03 09:53:40;;;;;;;0.40;0.30;;;;;;;6.58;39.68;101324.25;5073388;28;20441;-74
2022/04/03 09:56:08;;;;;;;0.40;0.30;;;;;;;6.45;39.62;101337.31;5073152;28;20531;-74
2022/04/03 09:58:43;;;;;;;0.40;0.30;;;;;;;6.63;38.88;101328.06;5073137;28;20462;-75
2022/04/03 10:01:23;;;;;;;0.40;0.30;;;;;;;6.71;39.33;101333.78;5073019;28;20413;-74
2022/04/03 10:03:50;;;;;;;0.40;0.30;;;;;;;6.68;39.52;101325.41;5073089;28;20430;-75
2022/04/03 10:06:17;;;;;;;0.40;0.30;;;;;;;6.75;39.64;101326.81;5072615;28;20477;-74
2022/04/03 10:08:46;;;;;;;0.40;0.30;;;;;;;6.81;39.89;101325.78;5072613;28;20515;-74
2022/04/03 10:11:14;;;;;;;0.40;0.30;;;;;;;6.96;39.65;101329.69;5072892;28;20445;-74
2022/04/03 10:13:42;;;;;;;0.40;0.30;;;;;;;6.79;38.60;101317.16;5072891;28;20440;-75
2022/04/03 10:16:10;;;;;;;0.40;0.30;;;;;;;6.46;37.38;101312.00;5072959;28;20441;-74
2022/04/03 10:18:37;;;;;;;0.40;0.30;;;;;;;6.51;37.32;101312.09;5072931;28;20463;-74
2022/04/03 10:21:05;;;;;;;0.40;0.30;;;;;;;6.55;37.87;101310.47;5072599;28;20523;-74
2022/04/03 10:23:33;;;;;;;0.40;0.30;;;;;;;6.66;37.55;101300.63;5072366;28;20560;-74
2022/04/03 10:26:03;;;;;;;0.40;0.40;;;;;;;6.71;37.71;101309.56;5072607;28;20507;-74
2022/04/03 10:28:32;;;;;;;0.40;0.30;;;;;;;6.95;37.79;101303.78;5072402;28;20508;-73
2022/04/03 10:31:00;;;;;;;2.60;1.90;;;;;;;7.06;37.15;101302.81;5072524;28;20524;-74
2022/04/03 10:33:35;;;;;;;0.40;0.30;;;;;;;7.07;37.25;101290.94;5072430;28;20541;-74
2022/04/03 10:36:07;;;;;;;0.40;0.30;;;;;;;7.07;37.51;101301.72;5072766;28;20433;-74
2022/04/03 10:38:38;;;;;;;0.40;0.30;;;;;;;7.15;37.23;101282.38;5072294;28;20495;-74
2022/04/03 10:41:06;;;;;;;0.40;0.30;;;;;;;7.31;37.08;101276.00;5072356;28;20480;-74
2022/04/03 10:43:39;;;;;;;0.40;0.30;;;;;;;7.12;37.19;101276.69;5072708;28;20437;-74
2022/04/03 10:46:06;;;;;;;0.40;0.40;;;;;;;7.15;37.11;101271.59;5072593;28;20480;-74
2022/04/03 10:48:33;;;;;;;0.40;0.30;;;;;;;7.21;37.21;101269.75;5072561;28;20603;-73
2022/04/03 10:51:05;;;;;;;0.40;0.30;;;;;;;7.22;37.57;101272.19;5073198;28;20441;-73
2022/04/03 10:53:33;;;;;;;0.40;0.30;;;;;;;7.19;37.52;101267.31;5076377;28;20430;-74
2022/04/03 10:56:07;;;;;;;0.40;0.30;;;;;;;7.13;36.52;101264.84;5076108;28;20441;-74
2022/04/03 10:58:57;;;;;;;0.40;0.30;;;;;;;7.36;36.63;101255.56;5075978;28;20492;-74
2022/04/03 11:01:26;;;;;;;0.40;0.30;;;;;;;7.86;36.08;101248.72;5071460;28;20826;-73
2022/04/03 11:03:58;;;;;;;0.40;0.30;;;;;;;7.96;35.60;101248.72;5075688;28;20445;-74
2022/04/03 11:06:28;;;;;;;0.40;0.30;;;;;;;8.16;35.71;101251.47;5075489;28;20470;-74
2022/04/03 11:09:00;;;;;;;0.40;0.30;;;;;;;8.34;35.56;101253.63;5075235;28;20461;-74
2022/04/03 11:11:55;;;;;;;0.40;0.30;;;;;;;8.41;35.86;101255.28;5075495;28;20868;-74
2022/04/03 11:14:57;;;;;;;0.40;0.30;;;;;;;8.34;35.82;101236.63;5072962;28;20461;-73
2022/04/03 11:17:48;;;;;;;0.40;0.30;;;;;;;8.34;36.00;101240.13;5075120;28;20433;-74
2022/04/03 11:20:30;;;;;;;0.40;0.30;;;;;;;8.34;35.81;101231.22;5075042;28;20514;-74
2022/04/03 11:23:02;;;;;;;0.40;0.30;;;;;;;8.15;35.69;101232.84;5074832;28;20972;-74
2022/04/03 11:25:28;;;;;;;0.40;0.30;;;;;;;8.28;36.44;101224.22;5075351;28;20919;-74
2022/04/03 11:28:08;;;;;;;0.40;0.30;;;;;;;9.10;35.84;101223.03;5075029;28;20489;-73
2022/04/03 11:30:37;;;;;;;0.40;0.30;;;;;;;10.56;33.54;101232.47;5075263;28;20451;-74
2022/04/03 11:33:04;;;;;;;0.40;0.30;;;;;;;10.71;32.92;101220.66;5075510;28;20445;-74
2022/04/03 11:35:38;;;;;;;0.40;0.30;;;;;;;10.32;33.19;101228.91;5075388;28;20472;-74